Time;durP1;ratioP1;P1;durP2;ratioP2;P2;SDS_P1;SDS_P2;PMS_P1;PMS_P2;Temp;Humidity;BMP_temperature;BMP_pressure;BME280_temperature;BME280_humidity;BME280_pressure;Samples;Min_cycle;Max_cycle;Signal;HPM_P1;HPM_P2
2023/01/20 00:01:53;;;;;;;;;;;2.50;99.90;;;;;;4998255;28;20247;-87
2023/01/20 00:04:19;;;;;;;;;;;2.60;99.90;;;;;;4998764;28;19996;-85
2023/01/20 00:06:44;;;;;;;;;;;2.60;99.90;;;;;;4998355;28;19967;-86
2023/01/20 00:09:12;;;;;;;;;;;2.70;99.90;;;;;;4998659;28;19910;-86
2023/01/20 00:11:37;;;;;;;;;;;2.70;99.90;;;;;;4998257;28;20367;-85
2023/01/20 00:14:03;;;;;;;;;;;2.80;99.90;;;;;;4998219;28;19910;-86
2023/01/20 00:16:30;;;;;;;;;;;2.70;99.90;;;;;;5016239;28;20000;-86
2023/01/20 00:18:56;;;;;;;;;;;2.80;99.90;;;;;;4998346;28;19919;-87
2023/01/20 00:21:21;;;;;;;;;;;2.80;99.90;;;;;;5015699;28;20363;-85
2023/01/20 00:23:47;;;;;;;;;;;2.80;99.90;;;;;;4998173;28;19909;-86
2023/01/20 00:26:15;;;;;;;;;;;2.90;99.90;;;;;;5015641;28;20008;-87
2023/01/20 00:28:41;;;;;;;;;;;2.90;99.90;;;;;;4998240;28;19918;-87
2023/01/20 00:31:09;;;;;;;;;;;2.90;99.90;;;;;;4998160;28;20001;-85
2023/01/20 00:33:35;;;;;;;;;;;2.90;99.90;;;;;;5047565;23;19968;-88
2023/01/20 00:36:00;;;;;;;;;;;2.90;99.90;;;;;;5037003;28;19909;-89
2023/01/20 00:38:25;;;;;;;;;;;2.90;99.90;;;;;;5036954;28;20366;-88
2023/01/20 00:40:54;;;;;;;;;;;2.90;99.90;;;;;;5037327;28;19932;-88
2023/01/20 00:43:20;;;;;;;;;;;2.80;99.90;;;;;;5036997;28;20322;-88
2023/01/20 00:45:45;;;;;;;;;;;2.80;99.90;;;;;;5037098;28;19955;-87
2023/01/20 00:48:11;;;;;;;;;;;2.80;99.90;;;;;;5037096;28;20019;-89
2023/01/20 00:50:36;;;;;;;;;;;2.80;99.90;;;;;;5036843;28;19913;-88
2023/01/20 00:53:02;;;;;;;;;;;2.80;99.90;;;;;;5036930;28;20384;-89
2023/01/20 00:55:27;;;;;;;;;;;2.80;99.90;;;;;;5036785;28;19909;-89
2023/01/20 00:57:53;;;;;;;;;;;2.90;99.90;;;;;;5037069;28;20476;-88
2023/01/20 01:00:18;;;;;;;;;;;2.80;99.90;;;;;;5036595;28;19913;-88
2023/01/20 01:02:44;;;;;;;;;;;2.80;99.90;;;;;;5036475;28;19983;-89
2023/01/20 01:05:09;;;;;;;;;;;2.80;99.90;;;;;;5036267;28;19909;-88
2023/01/20 01:07:35;;;;;;;;;;;2.80;99.90;;;;;;5036301;28;20283;-88
2023/01/20 01:10:00;;;;;;;;;;;2.80;99.90;;;;;;5036173;28;19909;-88
2023/01/20 01:12:26;;;;;;;;;;;2.80;99.90;;;;;;5035753;28;19917;-88
2023/01/20 01:14:51;;;;;;;;;;;2.70;99.90;;;;;;5036559;28;19962;-88
2023/01/20 01:17:16;;;;;;;;;;;2.70;99.90;;;;;;5036369;28;20016;-88
2023/01/20 01:19:42;;;;;;;;;;;2.60;99.90;;;;;;5035762;28;20453;-88
2023/01/20 01:22:07;;;;;;;;;;;2.60;99.90;;;;;;5036231;28;20432;-88
2023/01/20 01:24:33;;;;;;;;;;;2.70;99.90;;;;;;5036381;28;19909;-88
2023/01/20 01:26:58;;;;;;;;;;;2.70;99.90;;;;;;5036338;28;19963;-88
2023/01/20 01:29:24;;;;;;;;;;;2.70;99.90;;;;;;5036340;28;19959;-88
2023/01/20 01:31:49;;;;;;;;;;;2.70;99.90;;;;;;5035969;28;19908;-88
2023/01/20 01:34:15;;;;;;;;;;;2.60;99.90;;;;;;5036077;28;19916;-88
2023/01/20 01:36:40;;;;;;;;;;;2.70;99.90;;;;;;5036016;28;19909;-88
2023/01/20 01:39:06;;;;;;;;;;;2.70;99.90;;;;;;5036004;28;19923;-88
2023/01/20 01:41:31;;;;;;;;;;;2.70;99.90;;;;;;5035765;28;20373;-88
2023/01/20 01:43:59;;;;;;;;;;;2.60;99.90;;;;;;5035953;28;19909;-89
2023/01/20 01:46:24;;;;;;;;;;;2.70;99.90;;;;;;5036062;28;19909;-88
2023/01/20 01:48:50;;;;;;;;;;;2.70;99.90;;;;;;5035955;28;20370;-89
2023/01/20 01:51:21;;;;;;;;;;;2.60;99.90;;;;;;5035586;28;19908;-89
2023/01/20 01:53:52;;;;;;;;;;;2.50;99.90;;;;;;5035604;28;19912;-88
2023/01/20 01:56:19;;;;;;;;;;;2.50;99.90;;;;;;5053539;28;19916;-88
2023/01/20 01:58:46;;;;;;;;;;;2.40;99.90;;;;;;5035612;28;19971;-88
2023/01/20 02:01:11;;;;;;;;;;;2.40;99.90;;;;;;5035422;28;19909;-88
2023/01/20 02:03:41;;;;;;;;;;;2.40;99.90;;;;;;5035814;28;19979;-88
2023/01/20 02:06:06;;;;;;;;;;;2.30;99.90;;;;;;5035536;28;19912;-88
2023/01/20 02:08:32;;;;;;;;;;;2.30;99.90;;;;;;5035849;28;19916;-88
2023/01/20 02:10:58;;;;;;;;;;;2.30;99.90;;;;;;5035566;28;19909;-89
2023/01/20 02:13:23;;;;;;;;;;;2.20;99.90;;;;;;5035506;28;19916;-89
2023/01/20 02:15:58;;;;;;;;;;;2.20;99.90;;;;;;5035559;28;19909;-88
2023/01/20 02:18:30;;;;;;;;;;;2.20;99.90;;;;;;5035331;28;19979;-88
2023/01/20 02:21:14;;;;;;;;;;;2.20;99.90;;;;;;5035370;28;19909;-89
2023/01/20 02:23:53;;;;;;;;;;;2.10;99.90;;;;;;5035233;28;19959;-89
2023/01/20 02:26:37;;;;;;;;;;;2.20;99.90;;;;;;5035388;28;19959;-88
2023/01/20 02:29:03;;;;;;;;;;;2.20;99.90;;;;;;5035325;28;19915;-88
2023/01/20 02:31:47;;;;;;;;;;;2.40;99.90;;;;;;5034148;28;19909;-88
2023/01/20 02:34:20;;;;;;;;;;;2.50;99.90;;;;;;5034942;28;19925;-89
2023/01/20 02:36:49;;;;;;;;;;;2.40;99.90;;;;;;5035530;28;19909;-88
2023/01/20 02:39:18;;;;;;;;;;;2.40;99.90;;;;;;5034841;28;19944;-88
2023/01/20 02:42:02;;;;;;;;;;;2.40;99.90;;;;;;5035312;28;19931;-88
2023/01/20 02:44:34;;;;;;;;;;;2.50;99.90;;;;;;5035071;28;19913;-88
2023/01/20 02:47:03;;;;;;;;;;;2.50;99.90;;;;;;5035481;28;19909;-88
2023/01/20 02:49:43;;;;;;;;;;;2.60;99.90;;;;;;5035086;28;20385;-88
2023/01/20 02:52:11;;;;;;;;;;;2.70;99.90;;;;;;5034741;28;19909;-88
2023/01/20 02:54:39;;;;;;;;;;;2.80;99.90;;;;;;5034972;28;19999;-89
2023/01/20 02:57:07;;;;;;;;;;;2.80;99.90;;;;;;5035052;28;19955;-89
2023/01/20 02:59:35;;;;;;;;;;;2.70;99.90;;;;;;5035017;28;19919;-88
2023/01/20 03:02:09;;;;;;;;;;;2.80;99.90;;;;;;5034689;28;19909;-88
2023/01/20 03:04:39;;;;;;;;;;;2.90;99.90;;;;;;5035108;28;19975;-89
2023/01/20 03:07:06;;;;;;;;;;;3.00;99.90;;;;;;5035078;28;19959;-89
2023/01/20 03:09:34;;;;;;;;;;;3.10;99.90;;;;;;5034979;28;19909;-89
2023/01/20 03:12:02;;;;;;;;;;;3.30;99.90;;;;;;5034723;28;19932;-89
2023/01/20 03:14:28;;;;;;;;;;;3.30;99.90;;;;;;5034899;28;19908;-88
2023/01/20 03:16:53;;;;;;;;;;;3.50;99.90;;;;;;5034756;28;19962;-88
2023/01/20 03:19:19;;;;;;;;;;;3.50;99.90;;;;;;5034860;28;19920;-89
2023/01/20 03:21:44;;;;;;;;;;;3.50;99.90;;;;;;5034776;28;19940;-89
2023/01/20 03:24:10;;;;;;;;;;;3.50;99.90;;;;;;5034641;28;19909;-88
2023/01/20 03:26:36;;;;;;;;;;;3.40;99.90;;;;;;5034758;28;19913;-88
2023/01/20 03:29:04;;;;;;;;;;;3.40;99.90;;;;;;5034672;28;20031;-88
2023/01/20 03:31:31;;;;;;;;;;;3.20;99.90;;;;;;5034778;28;19916;-89
2023/01/20 03:33:58;;;;;;;;;;;3.20;99.90;;;;;;5034022;28;19975;-89
2023/01/20 03:36:25;;;;;;;;;;;3.20;99.90;;;;;;5034310;28;20011;-89
2023/01/20 03:38:50;;;;;;;;;;;3.20;99.90;;;;;;5034152;28;19955;-89
2023/01/20 03:41:28;;;;;;;;;;;3.30;99.90;;;;;;5034100;28;20358;-88
2023/01/20 03:44:01;;;;;;;;;;;3.30;99.90;;;;;;5038396;28;19909;-89
2023/01/20 03:46:26;;;;;;;;;;;3.30;99.90;;;;;;5038267;28;19919;-89
2023/01/20 03:48:58;;;;;;;;;;;3.40;99.90;;;;;;5069051;28;19897;-86
2023/01/20 03:51:26;;;;;;;;;;;3.30;99.90;;;;;;5054675;28;20007;-89
2023/01/20 03:53:58;;;;;;;;;;;3.40;99.90;;;;;;5041068;28;19908;-89
2023/01/20 03:56:47;;;;;;;;;;;3.30;99.90;;;;;;5040957;28;19909;-88
2023/01/20 03:59:13;;;;;;;;;;;3.30;99.90;;;;;;5025268;28;19913;-89
2023/01/20 04:01:41;;;;;;;;;;;3.40;99.90;;;;;;5038054;28;19909;-88
2023/01/20 04:04:08;;;;;;;;;;;3.40;99.90;;;;;;5037776;28;19913;-88
2023/01/20 04:06:34;;;;;;;;;;;3.40;99.90;;;;;;5038289;28;19909;-88
2023/01/20 04:09:01;;;;;;;;;;;3.50;99.90;;;;;;5037830;28;20374;-89
2023/01/20 04:11:27;;;;;;;;;;;3.50;99.90;;;;;;5037596;28;20015;-89
2023/01/20 04:13:52;;;;;;;;;;;3.50;99.90;;;;;;5037953;28;19963;-89
2023/01/20 04:16:18;;;;;;;;;;;3.60;99.90;;;;;;5038224;28;19908;-89
2023/01/20 04:18:45;;;;;;;;;;;3.60;99.90;;;;;;5038242;28;19922;-89
2023/01/20 04:21:15;;;;;;;;;;;3.60;99.90;;;;;;5037672;28;19909;-89
2023/01/20 04:23:55;;;;;;;;;;;3.70;99.90;;;;;;5037542;28;19909;-88
2023/01/20 04:26:21;;;;;;;;;;;3.80;99.90;;;;;;5037673;28;19944;-88
2023/01/20 04:28:46;;;;;;;;;;;3.80;99.90;;;;;;5037419;28;19944;-89
2023/01/20 04:31:13;;;;;;;;;;;3.70;99.90;;;;;;5037667;28;19958;-89
2023/01/20 04:33:39;;;;;;;;;;;3.70;99.90;;;;;;5037076;28;19917;-89
2023/01/20 04:36:06;;;;;;;;;;;3.60;99.90;;;;;;5037347;28;19963;-86
2023/01/20 04:38:31;;;;;;;;;;;3.50;99.90;;;;;;5037110;28;20302;-88
2023/01/20 04:40:57;;;;;;;;;;;3.40;99.90;;;;;;5037059;28;19909;-90
2023/01/20 04:43:22;;;;;;;;;;;3.30;99.90;;;;;;5037088;28;19916;-89
2023/01/20 04:45:48;;;;;;;;;;;3.20;99.90;;;;;;5037306;28;19954;-89
2023/01/20 04:48:13;;;;;;;;;;;3.10;99.90;;;;;;5037050;28;19943;-88
2023/01/20 04:50:39;;;;;;;;;;;3.00;99.90;;;;;;5037218;28;19908;-89
2023/01/20 04:53:05;;;;;;;;;;;3.00;99.90;;;;;;5036311;28;19939;-89
2023/01/20 04:55:31;;;;;;;;;;;2.80;99.90;;;;;;5036738;28;20381;-89
2023/01/20 04:57:57;;;;;;;;;;;2.70;99.90;;;;;;5036831;28;19913;-89
2023/01/20 05:00:22;;;;;;;;;;;2.70;99.90;;;;;;5037236;28;20454;-89
2023/01/20 05:02:48;;;;;;;;;;;2.70;99.90;;;;;;5036677;28;19916;-89
2023/01/20 05:05:13;;;;;;;;;;;2.60;99.90;;;;;;5054807;28;19909;-88
2023/01/20 05:07:39;;;;;;;;;;;2.60;99.90;;;;;;5036778;28;19958;-88
2023/01/20 05:10:05;;;;;;;;;;;2.70;99.90;;;;;;5054554;28;19974;-89
2023/01/20 05:12:30;;;;;;;;;;;2.70;99.90;;;;;;5036520;28;19912;-89
2023/01/20 05:14:55;;;;;;;;;;;2.70;99.90;;;;;;5036551;28;19919;-88
2023/01/20 05:17:21;;;;;;;;;;;2.70;99.90;;;;;;5036892;28;19908;-89
2023/01/20 05:19:46;;;;;;;;;;;2.80;99.90;;;;;;5036819;28;19916;-89
2023/01/20 05:22:12;;;;;;;;;;;2.80;99.90;;;;;;5036712;28;19934;-89
2023/01/20 05:24:37;;;;;;;;;;;2.90;99.90;;;;;;5036565;28;19916;-88
2023/01/20 05:27:03;;;;;;;;;;;2.90;99.90;;;;;;5036728;28;20278;-88
2023/01/20 05:29:28;;;;;;;;;;;2.90;99.90;;;;;;5036348;28;19924;-89
2023/01/20 05:31:57;;;;;;;;;;;2.90;99.90;;;;;;5059385;28;19995;-89
2023/01/20 05:34:22;;;;;;;;;;;2.80;99.90;;;;;;5047832;28;19924;-89
2023/01/20 05:36:52;;;;;;;;;;;2.70;99.90;;;;;;5046041;28;19908;-89
2023/01/20 05:39:18;;;;;;;;;;;2.70;99.90;;;;;;5049163;28;19936;-89
2023/01/20 05:41:45;;;;;;;;;;;2.60;99.90;;;;;;5046008;28;19897;-90
2023/01/20 05:44:11;;;;;;;;;;;2.70;99.90;;;;;;5043317;28;19924;-88
2023/01/20 05:46:36;;;;;;;;;;;2.70;99.90;;;;;;5036837;28;19913;-89
2023/01/20 05:49:02;;;;;;;;;;;2.60;99.90;;;;;;5036150;28;19909;-88
2023/01/20 05:51:27;;;;;;;;;;;2.70;99.90;;;;;;5036385;28;19908;-89
2023/01/20 05:53:53;;;;;;;;;;;2.70;99.90;;;;;;5035633;28;20455;-89
2023/01/20 05:56:18;;;;;;;;;;;2.70;99.90;;;;;;5035636;28;19923;-89
2023/01/20 05:58:44;;;;;;;;;;;2.70;99.90;;;;;;5035840;28;20263;-89
2023/01/20 06:01:13;;;;;;;;;;;2.60;99.90;;;;;;5035688;28;19909;-89
2023/01/20 06:03:39;;;;;;;;;;;2.50;99.90;;;;;;5036100;28;19909;-89
2023/01/20 06:06:06;;;;;;;;;;;2.40;99.90;;;;;;5035652;28;20392;-90
2023/01/20 06:08:31;;;;;;;;;;;2.40;99.90;;;;;;5036090;28;19974;-89
2023/01/20 06:10:57;;;;;;;;;;;2.40;99.90;;;;;;5035908;28;19909;-89
2023/01/20 06:13:22;;;;;;;;;;;2.40;99.90;;;;;;5035453;28;20381;-89
2023/01/20 06:15:52;;;;;;;;;;;2.50;99.90;;;;;;5035520;28;19932;-88
2023/01/20 06:18:18;;;;;;;;;;;2.50;99.90;;;;;;5035652;28;19967;-88
2023/01/20 06:20:43;;;;;;;;;;;2.50;99.90;;;;;;5035100;28;19909;-88
2023/01/20 06:23:09;;;;;;;;;;;2.50;99.90;;;;;;5052918;28;19916;-88
2023/01/20 06:25:34;;;;;;;;;;;2.50;99.90;;;;;;5035330;28;20270;-88
2023/01/20 06:28:00;;;;;;;;;;;2.50;99.90;;;;;;5035244;28;19908;-88
2023/01/20 06:30:25;;;;;;;;;;;2.50;99.90;;;;;;5053141;28;20392;-88
2023/01/20 06:32:53;;;;;;;;;;;2.60;99.90;;;;;;5035470;28;19917;-88
2023/01/20 06:35:19;;;;;;;;;;;2.60;99.90;;;;;;5035329;28;19944;-89
2023/01/20 06:37:44;;;;;;;;;;;2.60;99.90;;;;;;5035157;28;19971;-89
2023/01/20 06:40:10;;;;;;;;;;;2.50;99.90;;;;;;5035159;28;19913;-89
2023/01/20 06:42:35;;;;;;;;;;;2.50;99.90;;;;;;5035116;28;19952;-88
2023/01/20 06:45:01;;;;;;;;;;;2.60;99.90;;;;;;5035091;28;19916;-88
2023/01/20 06:47:26;;;;;;;;;;;2.50;99.90;;;;;;5035146;28;19916;-88
2023/01/20 06:49:52;;;;;;;;;;;2.50;99.90;;;;;;5035090;28;20374;-88
2023/01/20 06:52:17;;;;;;;;;;;2.50;99.90;;;;;;5034721;28;19909;-88
2023/01/20 06:54:43;;;;;;;;;;;2.50;99.90;;;;;;5035331;28;19909;-88
2023/01/20 06:57:08;;;;;;;;;;;2.50;99.90;;;;;;5034960;28;20388;-88
2023/01/20 06:59:33;;;;;;;;;;;2.50;99.90;;;;;;5034897;28;19912;-89
2023/01/20 07:01:59;;;;;;;;;;;2.60;99.90;;;;;;5034625;28;19909;-89
2023/01/20 07:04:24;;;;;;;;;;;2.70;99.90;;;;;;5034794;28;19909;-89
2023/01/20 07:06:50;;;;;;;;;;;2.80;99.90;;;;;;5034934;28;19913;-89
2023/01/20 07:09:15;;;;;;;;;;;2.90;99.90;;;;;;5052626;28;19913;-89
2023/01/20 07:11:41;;;;;;;;;;;2.90;99.90;;;;;;5034661;28;19908;-87
2023/01/20 07:14:07;;;;;;;;;;;3.00;99.90;;;;;;5034532;28;20370;-87
2023/01/20 07:16:32;;;;;;;;;;;3.00;99.90;;;;;;5035060;28;19962;-87
2023/01/20 07:18:58;;;;;;;;;;;3.10;99.90;;;;;;5038678;28;19916;-87
2023/01/20 07:21:24;;;;;;;;;;;3.10;99.90;;;;;;5038855;28;19909;-87
2023/01/20 07:23:49;;;;;;;;;;;3.10;99.90;;;;;;5038661;28;19955;-87
2023/01/20 07:26:16;;;;;;;;;;;3.10;99.90;;;;;;5038620;28;19955;-87
2023/01/20 07:28:41;;;;;;;;;;;3.10;99.90;;;;;;5038564;28;19908;-87
2023/01/20 07:31:08;;;;;;;;;;;3.10;99.90;;;;;;5056520;28;20428;-88
2023/01/20 07:33:34;;;;;;;;;;;3.10;99.90;;;;;;5037961;28;19920;-87
2023/01/20 07:36:00;;;;;;;;;;;3.20;99.90;;;;;;5038026;28;19915;-88
2023/01/20 07:38:26;;;;;;;;;;;3.30;99.90;;;;;;5038272;28;19923;-87
2023/01/20 07:40:51;;;;;;;;;;;3.20;99.90;;;;;;5038176;28;19909;-87
2023/01/20 07:43:17;;;;;;;;;;;3.30;99.90;;;;;;5038506;28;19909;-87
2023/01/20 07:45:42;;;;;;;;;;;3.30;99.90;;;;;;5038226;28;19909;-87
2023/01/20 07:48:08;;;;;;;;;;;3.30;99.90;;;;;;5038330;28;20535;-87
2023/01/20 07:50:34;;;;;;;;;;;3.30;99.90;;;;;;5038582;28;19909;-87
2023/01/20 07:52:59;;;;;;;;;;;3.30;99.90;;;;;;5037851;28;19908;-87
2023/01/20 07:55:25;;;;;;;;;;;3.30;99.90;;;;;;5038104;28;19932;-87
2023/01/20 07:57:50;;;;;;;;;;;3.30;99.90;;;;;;5037943;28;20103;-87
2023/01/20 08:00:17;;;;;;;;;;;3.30;99.90;;;;;;5037882;28;19964;-87
2023/01/20 08:02:42;;;;;;;;;;;3.30;99.90;;;;;;5037610;28;19916;-87
2023/01/20 08:05:08;;;;;;;;;;;3.30;99.90;;;;;;5037887;28;19909;-88
2023/01/20 08:07:33;;;;;;;;;;;3.40;99.90;;;;;;5038011;28;19959;-87
2023/01/20 08:09:59;;;;;;;;;;;3.40;99.90;;;;;;5037831;28;19982;-87
2023/01/20 08:12:24;;;;;;;;;;;3.50;99.90;;;;;;5037158;28;19952;-87
2023/01/20 08:14:50;;;;;;;;;;;3.60;99.90;;;;;;5037982;28;19908;-87
2023/01/20 08:17:15;;;;;;;;;;;3.50;99.90;;;;;;5037670;28;19919;-87
2023/01/20 08:19:41;;;;;;;;;;;3.60;99.90;;;;;;5037520;28;19960;-87
2023/01/20 09:13:51;;;;;;;;;;;4.60;99.90;;;;;;5041966;22;19925;-87
2023/01/20 09:16:18;;;;;;;;;;;4.70;99.90;;;;;;5016955;28;19909;-85
2023/01/20 09:18:43;;;;;;;;;;;4.90;99.90;;;;;;5034484;28;20323;-86
2023/01/20 09:21:09;;;;;;;;;;;4.90;99.90;;;;;;5017805;28;19917;-89
2023/01/20 09:23:37;;;;;;;;;;;4.80;99.90;;;;;;5016125;28;19913;-88
2023/01/20 09:26:03;;;;;;;;;;;4.80;99.90;;;;;;5016263;28;19909;-89
2023/01/20 09:28:29;;;;;;;;;;;4.60;99.90;;;;;;5033771;28;19910;-89
2023/01/20 09:30:58;;;;;;;;;;;4.40;99.90;;;;;;5015670;28;20429;-89
2023/01/20 09:33:23;;;;;;;;;;;4.30;99.90;;;;;;5016052;28;19916;-89
2023/01/20 09:35:55;;;;;;;;;;;4.10;99.90;;;;;;5015961;28;20378;-89
2023/01/20 09:43:58;;;;;;;;;;;4.00;99.90;;;;;;5033380;28;20290;-89
2023/01/20 09:46:29;;;;;;;;;;;4.20;99.90;;;;;;5033343;28;19955;-88
2023/01/20 09:54:59;;;;;;;;;;;4.50;99.90;;;;;;5033255;28;19917;-89
2023/01/20 09:57:28;;;;;;;;;;;4.60;99.90;;;;;;5015579;28;19913;-89
2023/01/20 09:59:59;;;;;;;;;;;4.60;99.90;;;;;;5015706;28;19920;-89
2023/01/20 10:02:28;;;;;;;;;;;4.60;99.90;;;;;;5015145;28;19909;-89
2023/01/20 10:04:56;;;;;;;;;;;4.70;99.90;;;;;;5015342;28;20354;-89
2023/01/20 10:07:27;;;;;;;;;;;4.90;99.90;;;;;;5015523;28;20390;-89
2023/01/20 10:09:58;;;;;;;;;;;4.90;99.90;;;;;;5015326;28;19909;-89
2023/01/20 10:12:36;;;;;;;;;;;4.80;99.90;;;;;;5015006;28;19909;-89
2023/01/20 10:15:07;;;;;;;;;;;4.80;99.90;;;;;;5015263;28;19921;-89
2023/01/20 10:17:38;;;;;;;;;;;4.80;99.90;;;;;;5015182;28;19959;-88
2023/01/20 10:20:07;;;;;;;;;;;4.80;99.90;;;;;;5015178;28;20397;-89
2023/01/20 10:22:36;;;;;;;;;;;5.00;99.90;;;;;;5032507;28;19916;-89
2023/01/20 10:25:14;;;;;;;;;;;5.10;99.90;;;;;;5015144;28;19996;-90
2023/01/20 10:27:42;;;;;;;;;;;5.10;99.90;;;;;;5015062;28;19910;-88
2023/01/20 10:30:09;;;;;;;;;;;5.20;99.90;;;;;;5014918;28;19909;-89
2023/01/20 10:32:39;;;;;;;;;;;5.30;99.90;;;;;;5014747;28;20393;-89
2023/01/20 10:35:14;;;;;;;;;;;5.30;99.90;;;;;;5014987;28;20043;-89
2023/01/20 10:37:40;;;;;;;;;;;5.20;99.90;;;;;;5014864;28;20339;-89
2023/01/20 10:40:38;;;;;;;;;;;5.10;99.90;;;;;;5014819;28;19940;-88
2023/01/20 10:43:09;;;;;;;;;;;5.10;99.90;;;;;;4971669;28;20370;-89
2023/01/20 10:45:34;;;;;;;;;;;5.00;99.90;;;;;;5032554;28;19909;-89
2023/01/20 10:48:12;;;;;;;;;;;4.90;99.90;;;;;;5014809;28;19916;-89
2023/01/20 10:50:37;;;;;;;;;;;4.80;99.90;;;;;;5014924;28;19916;-88
2023/01/20 10:53:14;;;;;;;;;;;4.80;99.90;;;;;;5017383;28;19909;-89
2023/01/20 10:55:42;;;;;;;;;;;4.80;99.90;;;;;;5019035;28;19959;-89
2023/01/20 10:58:08;;;;;;;;;;;4.80;99.90;;;;;;5018762;28;19921;-89
2023/01/20 11:00:34;;;;;;;;;;;4.80;99.90;;;;;;5036419;28;19916;-89
2023/01/20 11:03:00;;;;;;;;;;;4.80;99.90;;;;;;5018452;28;19909;-90
2023/01/20 11:05:31;;;;;;;;;;;4.80;99.90;;;;;;5018642;28;19913;-89
2023/01/20 11:07:57;;;;;;;;;;;4.80;99.90;;;;;;5018703;28;19909;-89
2023/01/20 11:10:24;;;;;;;;;;;4.80;99.90;;;;;;5018555;28;19992;-89
2023/01/20 11:12:51;;;;;;;;;;;4.90;99.90;;;;;;5018115;28;20341;-89
2023/01/20 11:15:20;;;;;;;;;;;5.00;99.90;;;;;;5036124;28;19909;-89
2023/01/20 11:17:45;;;;;;;;;;;5.10;99.90;;;;;;5036124;28;19917;-89
2023/01/20 11:20:19;;;;;;;;;;;5.10;99.90;;;;;;5036117;28;19963;-89
2023/01/20 11:22:46;;;;;;;;;;;5.10;99.90;;;;;;5018073;28;20355;-90
2023/01/20 11:25:21;;;;;;;;;;;5.10;99.90;;;;;;5036072;28;19909;-89
2023/01/20 11:27:46;;;;;;;;;;;5.20;99.90;;;;;;5018272;28;20284;-88
2023/01/20 11:30:21;;;;;;;;;;;5.10;99.90;;;;;;5018137;28;19917;-89
2023/01/20 11:33:05;;;;;;;;;;;5.10;99.90;;;;;;5035636;28;19909;-89
2023/01/20 11:35:30;;;;;;;;;;;5.10;99.90;;;;;;5036736;28;19909;-87
2023/01/20 11:37:56;;;;;;;;;;;5.10;99.90;;;;;;5028706;28;20286;-87
2023/01/20 11:40:26;;;;;;;;;;;5.10;99.90;;;;;;5029303;28;19913;-87
2023/01/20 11:42:52;;;;;;;;;;;5.20;99.90;;;;;;5028504;28;20355;-87
2023/01/20 11:45:24;;;;;;;;;;;5.20;99.90;;;;;;5029103;28;19916;-87
2023/01/20 11:48:00;;;;;;;;;;;5.20;99.90;;;;;;5029259;28;19913;-87
2023/01/20 11:50:28;;;;;;;;;;;5.10;99.90;;;;;;5028430;28;19962;-87
2023/01/20 11:53:09;;;;;;;;;;;5.10;99.90;;;;;;5027282;28;20317;-87
2023/01/20 11:55:43;;;;;;;;;;;4.90;99.90;;;;;;5029286;28;19913;-87
2023/01/20 11:58:15;;;;;;;;;;;4.90;99.90;;;;;;5028212;28;19936;-87
2023/01/20 12:00:41;;;;;;;;;;;4.90;99.90;;;;;;5045869;28;19936;-87
2023/01/20 12:03:22;;;;;;;;;;;4.80;99.90;;;;;;5027207;28;19916;-87
2023/01/20 12:05:51;;;;;;;;;;;4.70;99.90;;;;;;5028555;28;19909;-87
2023/01/20 12:08:20;;;;;;;;;;;4.60;99.90;;;;;;5027344;28;19932;-87
2023/01/20 12:10:46;;;;;;;;;;;4.40;99.90;;;;;;5028928;28;20383;-87
2023/01/20 12:13:29;;;;;;;;;;;4.40;99.90;;;;;;5028080;28;20325;-85
2023/01/20 12:15:58;;;;;;;;;;;4.40;99.90;;;;;;5028165;28;20278;-87
2023/01/20 12:18:29;;;;;;;;;;;4.30;99.90;;;;;;5028310;28;19944;-84
2023/01/20 12:21:19;;;;;;;;;;;4.20;99.90;;;;;;5027713;28;19936;-85
2023/01/20 12:23:50;;;;;;;;;;;4.10;99.90;;;;;;5027566;28;19932;-86
2023/01/20 12:26:17;;;;;;;;;;;4.00;99.90;;;;;;5027200;28;19915;-87
2023/01/20 12:28:50;;;;;;;;;;;4.00;99.90;;;;;;5026938;28;19913;-86
2023/01/20 12:31:18;;;;;;;;;;;4.10;99.90;;;;;;5025016;28;20367;-87
2023/01/20 12:33:47;;;;;;;;;;;4.10;99.90;;;;;;5024083;28;19916;-87
2023/01/20 12:36:15;;;;;;;;;;;4.00;99.90;;;;;;5023405;28;19954;-88
2023/01/20 12:38:55;;;;;;;;;;;4.00;99.90;;;;;;5022997;28;20290;-87
2023/01/20 12:41:28;;;;;;;;;;;3.90;99.90;;;;;;5022928;28;19909;-87
2023/01/20 12:44:11;;;;;;;;;;;3.80;99.90;;;;;;5022280;28;20026;-87
2023/01/20 12:46:43;;;;;;;;;;;3.70;99.90;;;;;;5021965;28;20363;-86
2023/01/20 12:49:25;;;;;;;;;;;3.70;99.90;;;;;;5022626;28;19999;-86
2023/01/20 12:52:10;;;;;;;;;;;3.60;99.90;;;;;;5039699;28;19909;-88
2023/01/20 12:54:54;;;;;;;;;;;3.60;99.90;;;;;;5033057;28;20008;-87
2023/01/20 12:57:26;;;;;;;;;;;3.50;99.90;;;;;;5020181;28;19948;-87
2023/01/20 13:00:01;;;;;;;;;;;3.30;99.90;;;;;;5020182;28;19959;-87
2023/01/20 13:02:42;;;;;;;;;;;3.30;99.90;;;;;;5019756;28;19968;-87
2023/01/20 13:05:23;;;;;;;;;;;3.20;99.90;;;;;;5018965;28;20005;-87
2023/01/20 13:08:01;;;;;;;;;;;3.20;99.90;;;;;;5018921;28;19909;-87
2023/01/20 13:10:46;;;;;;;;;;;3.20;99.90;;;;;;5018784;28;19913;-87
2023/01/20 13:13:17;;;;;;;;;;;3.20;99.90;;;;;;5018014;28;19917;-87
2023/01/20 13:15:49;;;;;;;;;;;3.20;99.90;;;;;;5017166;28;20301;-87
2023/01/20 13:18:20;;;;;;;;;;;3.20;99.90;;;;;;5017855;28;20387;-87
2023/01/20 13:20:46;;;;;;;;;;;3.10;99.90;;;;;;5018136;28;19999;-88
2023/01/20 13:23:13;;;;;;;;;;;3.20;99.90;;;;;;5018020;28;19957;-87
2023/01/20 13:25:40;;;;;;;;;;;3.20;99.90;;;;;;5017677;28;19963;-88
2023/01/20 13:28:12;;;;;;;;;;;3.10;99.90;;;;;;5017300;28;20397;-88
2023/01/20 13:30:50;;;;;;;;;;;3.10;99.90;;;;;;5017094;28;19909;-88
2023/01/20 13:33:23;;;;;;;;;;;3.10;99.90;;;;;;5016234;28;19913;-89
2023/01/20 13:35:48;;;;;;;;;;;3.10;99.90;;;;;;5034021;28;20362;-91
2023/01/20 13:38:22;;;;;;;;;;;3.00;99.90;;;;;;5016684;28;19924;-90
2023/01/20 13:40:49;;;;;;;;;;;3.00;99.90;;;;;;5016307;28;20366;-89
2023/01/20 13:43:21;;;;;;;;;;;3.00;99.90;;;;;;5016212;28;19913;-90
2023/01/20 13:45:46;;;;;;;;;;;3.10;99.90;;;;;;5016599;28;19945;-90
2023/01/20 13:48:12;;;;;;;;;;;3.10;99.90;;;;;;5016718;28;20346;-89
2023/01/20 13:50:42;;;;;;;;;;;3.10;99.90;;;;;;5016447;28;19909;-90
2023/01/20 13:53:19;;;;;;;;;;;3.10;99.90;;;;;;5016082;28;19932;-90
2023/01/20 13:55:46;;;;;;;;;;;3.00;99.90;;;;;;5016034;28;20286;-89
2023/01/20 13:58:18;;;;;;;;;;;3.00;99.90;;;;;;5016050;28;19913;-89
2023/01/20 14:00:44;;;;;;;;;;;3.00;99.90;;;;;;5016135;28;19957;-89
2023/01/20 14:03:24;;;;;;;;;;;3.00;99.90;;;;;;5015943;28;19913;-89
2023/01/20 14:05:54;;;;;;;;;;;3.10;99.90;;;;;;5015926;28;19911;-89
2023/01/20 14:08:21;;;;;;;;;;;3.10;99.90;;;;;;5015880;28;19909;-89
2023/01/20 14:10:46;;;;;;;;;;;3.20;99.90;;;;;;5015912;28;19909;-89
2023/01/20 14:13:22;;;;;;;;;;;3.10;99.90;;;;;;5015648;28;20059;-89
2023/01/20 14:15:49;;;;;;;;;;;3.10;99.90;;;;;;5015833;28;19916;-89
2023/01/20 14:18:16;;;;;;;;;;;2.90;99.90;;;;;;5015660;28;19940;-89
2023/01/20 14:20:42;;;;;;;;;;;2.80;99.90;;;;;;5015409;28;19916;-89
2023/01/20 14:23:27;;;;;;;;;;;2.80;99.90;;;;;;5015880;28;19909;-89
2023/01/20 14:25:57;;;;;;;;;;;2.80;99.90;;;;;;5015931;28;19913;-89
2023/01/20 14:28:23;;;;;;;;;;;2.80;99.90;;;;;;5033318;28;19909;-89
2023/01/20 14:30:48;;;;;;;;;;;2.80;99.90;;;;;;5015587;28;20371;-88
2023/01/20 14:33:15;;;;;;;;;;;2.80;99.90;;;;;;5015559;28;20012;-87
2023/01/20 14:35:40;;;;;;;;;;;2.80;99.90;;;;;;5024087;28;19932;-90
2023/01/20 14:38:16;;;;;;;;;;;2.80;99.90;;;;;;5026271;28;19913;-91
2023/01/20 14:40:41;;;;;;;;;;;2.80;99.90;;;;;;5025786;28;19910;-90
2023/01/20 14:43:17;;;;;;;;;;;2.90;99.90;;;;;;5024495;28;19993;-90
2023/01/20 14:45:45;;;;;;;;;;;2.80;99.90;;;;;;5023671;28;19963;-90
2023/01/20 14:48:11;;;;;;;;;;;2.70;99.90;;;;;;5023763;28;20286;-90
2023/01/20 14:50:37;;;;;;;;;;;2.70;99.90;;;;;;5024549;28;19909;-90
2023/01/20 14:53:03;;;;;;;;;;;2.70;99.90;;;;;;5022365;28;19910;-90
2023/01/20 14:55:34;;;;;;;;;;;2.70;99.90;;;;;;5024133;28;19909;-90
2023/01/20 14:58:05;;;;;;;;;;;2.70;99.90;;;;;;5025083;28;19913;-90
2023/01/20 15:00:32;;;;;;;;;;;2.70;99.90;;;;;;5025467;28;19909;-90
2023/01/20 15:03:17;;;;;;;;;;;2.60;99.90;;;;;;5017559;28;19914;-89
2023/01/20 15:05:51;;;;;;;;;;;2.60;99.90;;;;;;5015004;28;20007;-89
2023/01/20 15:08:24;;;;;;;;;;;2.60;99.90;;;;;;5014698;28;19912;-91
2023/01/20 15:11:08;;;;;;;;;;;2.70;99.90;;;;;;5015000;28;20279;-89
2023/01/20 15:13:34;;;;;;;;;;;2.70;99.90;;;;;;5061605;22;19947;-90
2023/01/20 15:16:12;;;;;;;;;;;2.70;99.90;;;;;;5014749;28;19910;-89
2023/01/20 15:18:38;;;;;;;;;;;2.80;99.90;;;;;;5014683;28;19921;-89
2023/01/20 15:21:30;;;;;;;;;;;2.80;99.90;;;;;;5014444;28;19909;-89
2023/01/20 15:24:05;;;;;;;;;;;2.80;99.90;;;;;;5010780;28;19910;-90
2023/01/20 15:26:30;;;;;;;;;;;2.90;99.90;;;;;;5032495;28;19992;-89
2023/01/20 15:28:56;;;;;;;;;;;3.00;99.90;;;;;;5014806;28;20382;-89
2023/01/20 15:31:23;;;;;;;;;;;3.00;99.90;;;;;;5020152;28;19909;-90
2023/01/20 15:33:48;;;;;;;;;;;3.00;99.90;;;;;;5022001;28;20326;-89
2023/01/20 15:36:19;;;;;;;;;;;2.90;99.90;;;;;;5020119;28;19971;-91
2023/01/20 15:38:44;;;;;;;;;;;2.90;99.90;;;;;;5021225;28;20371;-91
2023/01/20 15:41:12;;;;;;;;;;;2.90;99.90;;;;;;5019638;28;19916;-91
2023/01/20 15:43:40;;;;;;;;;;;2.90;99.90;;;;;;5019441;28;19917;-89